Time;durP1;ratioP1;P1;durP2;ratioP2;P2;SDS_P1;SDS_P2;PMS_P1;PMS_P2;Temp;Humidity;BMP_temperature;BMP_pressure;BME280_temperature;BME280_humidity;BME280_pressure;Samples;Min_cycle;Max_cycle;Signal;HPM_P1;HPM_P2
2020/12/21 00:02:22;;;;;;;64.43;30.63;;;7.50;99.90;;;;;;5055996;28;20396;-55
2020/12/21 00:04:48;;;;;;;67.13;31.20;;;7.50;99.90;;;;;;5064394;28;20462;-55
2020/12/21 00:07:14;;;;;;;65.00;30.38;;;7.50;99.90;;;;;;5058170;28;20742;-55
2020/12/21 00:09:40;;;;;;;72.15;29.95;;;7.50;99.90;;;;;;5066296;28;20396;-55
2020/12/21 00:12:06;;;;;;;64.05;30.33;;;7.50;99.90;;;;;;5060368;28;20406;-52
2020/12/21 00:14:33;;;;;;;62.90;29.10;;;7.50;99.90;;;;;;5062435;28;20400;-54
2020/12/21 00:16:59;;;;;;;62.15;29.35;;;7.50;99.90;;;;;;5067667;28;20378;-55
2020/12/21 00:19:25;;;;;;;61.20;30.30;;;7.50;99.90;;;;;;5064001;28;20390;-52
2020/12/21 00:21:52;;;;;;;60.38;29.27;;;7.50;99.90;;;;;;5052624;28;20396;-53
2020/12/21 00:24:21;;;;;;;59.87;29.17;;;7.60;99.90;;;;;;5061293;28;20401;-52
2020/12/21 00:26:48;;;;;;;55.22;28.75;;;7.60;99.90;;;;;;5052867;28;20752;-54
2020/12/21 00:29:15;;;;;;;62.85;27.55;;;7.50;99.90;;;;;;5063882;28;20376;-55
2020/12/21 00:31:44;;;;;;;60.63;27.75;;;7.50;99.90;;;;;;5057014;28;20439;-55
2020/12/21 00:34:10;;;;;;;59.95;26.88;;;7.50;99.90;;;;;;5062393;28;20470;-55
2020/12/21 00:36:41;;;;;;;50.30;25.17;;;7.50;99.90;;;;;;5067216;28;20408;-55
2020/12/21 00:39:07;;;;;;;52.47;23.55;;;7.50;99.90;;;;;;5064761;28;20382;-54
2020/12/21 00:41:33;;;;;;;46.10;23.08;;;7.60;99.90;;;;;;5072083;28;20408;-53
2020/12/21 00:43:59;;;;;;;49.58;23.67;;;7.60;99.90;;;;;;5059993;28;20401;-55
2020/12/21 00:46:27;;;;;;;49.03;21.90;;;7.50;99.90;;;;;;5061967;28;20408;-54
2020/12/21 00:48:54;;;;;;;47.45;22.35;;;7.60;99.90;;;;;;5064750;28;20388;-53
2020/12/21 00:51:20;;;;;;;49.95;21.75;;;7.60;99.90;;;;;;5064979;28;20748;-52
2020/12/21 00:53:47;;;;;;;44.40;21.52;;;7.60;99.90;;;;;;5059711;28;20516;-53
2020/12/21 00:56:13;;;;;;;43.17;20.75;;;7.60;99.90;;;;;;5065443;28;20409;-52
2020/12/21 00:58:42;;;;;;;44.95;19.33;;;7.60;99.90;;;;;;5054210;28;20388;-53
2020/12/21 01:01:11;;;;;;;44.13;19.40;;;7.60;99.90;;;;;;5066215;28;20862;-53
2020/12/21 01:03:37;;;;;;;44.47;17.98;;;7.60;99.90;;;;;;5059713;28;20405;-52
2020/12/21 01:06:06;;;;;;;50.22;17.80;;;7.60;99.90;;;;;;5065821;28;20390;-55
2020/12/21 01:08:33;;;;;;;36.55;16.65;;;7.60;99.90;;;;;;5066687;28;20752;-56
2020/12/21 01:10:59;;;;;;;39.35;16.48;;;7.60;99.90;;;;;;5066339;28;20827;-51
2020/12/21 01:13:25;;;;;;;35.58;16.30;;;7.60;99.90;;;;;;5067275;28;20391;-55
2020/12/21 01:15:51;;;;;;;39.40;16.92;;;7.60;99.90;;;;;;5059666;28;20407;-51
2020/12/21 01:18:17;;;;;;;42.45;16.30;;;7.60;99.90;;;;;;5059828;28;20393;-54
2020/12/21 01:20:44;;;;;;;33.60;15.55;;;7.60;99.90;;;;;;5058666;28;20398;-52
2020/12/21 01:23:10;;;;;;;37.42;15.30;;;7.60;99.90;;;;;;5065383;28;20893;-53
2020/12/21 01:25:36;;;;;;;33.60;14.85;;;7.60;99.90;;;;;;5065580;28;20727;-51
2020/12/21 01:28:03;;;;;;;38.97;15.20;;;7.60;99.90;;;;;;5065329;28;20406;-52
2020/12/21 01:30:29;;;;;;;34.17;14.97;;;7.60;99.90;;;;;;5058522;28;20395;-52
2020/12/21 01:32:55;;;;;;;36.25;15.23;;;7.60;99.90;;;;;;5063505;28;20484;-52
2020/12/21 01:35:21;;;;;;;40.00;15.77;;;7.70;99.90;;;;;;5066679;28;20388;-52
2020/12/21 01:37:47;;;;;;;38.85;16.40;;;7.70;99.90;;;;;;5061028;28;20390;-53
2020/12/21 01:40:14;;;;;;;44.38;16.58;;;7.60;99.90;;;;;;5069533;28;20390;-52
2020/12/21 01:42:40;;;;;;;37.67;16.45;;;7.70;99.90;;;;;;5063069;28;20390;-54
2020/12/21 01:45:06;;;;;;;37.22;16.38;;;7.70;99.90;;;;;;5064941;28;20393;-52
2020/12/21 01:47:33;;;;;;;36.70;16.08;;;7.60;99.90;;;;;;5067240;28;20445;-52
2020/12/21 01:49:59;;;;;;;36.00;16.48;;;7.60;99.90;;;;;;5065529;28;20479;-54
2020/12/21 01:52:25;;;;;;;36.03;16.73;;;7.60;99.90;;;;;;5057827;28;20906;-52
2020/12/21 01:54:51;;;;;;;34.72;16.35;;;7.70;99.90;;;;;;5064159;28;20387;-51
2020/12/21 01:57:17;;;;;;;36.70;16.75;;;7.70;99.90;;;;;;5056351;28;20393;-53
2020/12/21 01:59:46;;;;;;;44.97;17.90;;;7.60;99.90;;;;;;5057032;28;20393;-53
2020/12/21 02:02:13;;;;;;;40.30;18.77;;;7.70;99.90;;;;;;5068557;28;20402;-55
2020/12/21 02:04:39;;;;;;;44.00;18.27;;;7.70;99.90;;;;;;5067188;28;20498;-55
2020/12/21 02:07:05;;;;;;;43.13;18.90;;;7.70;99.90;;;;;;5068873;28;20422;-54
2020/12/21 02:09:32;;;;;;;49.58;20.90;;;7.70;99.90;;;;;;5067234;28;20475;-54
2020/12/21 02:11:58;;;;;;;55.05;21.55;;;7.70;99.90;;;;;;5058514;28;20407;-52
2020/12/21 02:14:25;;;;;;;45.78;21.27;;;7.70;99.90;;;;;;5059566;28;20891;-52
2020/12/21 02:16:51;;;;;;;47.25;22.58;;;7.70;99.90;;;;;;5069093;28;20421;-55
2020/12/21 02:19:18;;;;;;;52.03;22.95;;;7.70;99.90;;;;;;5065200;28;20390;-52
2020/12/21 02:21:47;;;;;;;52.22;24.02;;;7.70;99.90;;;;;;5061928;28;20382;-53
2020/12/21 02:24:13;;;;;;;50.33;23.90;;;7.80;99.90;;;;;;5068443;28;20395;-54
2020/12/21 02:26:39;;;;;;;52.28;24.65;;;7.80;99.90;;;;;;5064380;28;20391;-53
2020/12/21 02:29:06;;;;;;;57.05;26.17;;;7.70;99.90;;;;;;5058286;28;20410;-55
2020/12/21 02:31:32;;;;;;;60.25;26.63;;;7.70;99.90;;;;;;5060331;28;20755;-54
2020/12/21 02:33:58;;;;;;;56.22;26.52;;;7.80;99.90;;;;;;5060911;28;20398;-55
2020/12/21 02:36:25;;;;;;;60.63;27.35;;;7.70;99.90;;;;;;5067416;28;20378;-52
2020/12/21 02:38:51;;;;;;;67.18;27.70;;;7.70;99.90;;;;;;5061472;28;20384;-55
2020/12/21 02:41:17;;;;;;;58.03;26.45;;;7.70;99.90;;;;;;5066538;28;20905;-54
2020/12/21 02:43:44;;;;;;;65.35;26.80;;;7.70;99.90;;;;;;5063593;28;20723;-55
2020/12/21 02:46:11;;;;;;;59.45;26.23;;;7.70;99.90;;;;;;5055124;28;20970;-52
2020/12/21 02:48:37;;;;;;;56.15;26.00;;;7.70;99.90;;;;;;5058752;28;20407;-55
2020/12/21 02:51:04;;;;;;;58.63;27.27;;;7.70;99.90;;;;;;5067038;28;20374;-53
2020/12/21 02:53:30;;;;;;;59.63;28.33;;;7.70;99.90;;;;;;5059603;28;20390;-53
2020/12/21 02:55:56;;;;;;;63.75;29.00;;;7.70;99.90;;;;;;5067498;28;20395;-55
2020/12/21 02:58:22;;;;;;;66.38;29.27;;;7.70;99.90;;;;;;5059893;28;20498;-55
2020/12/21 03:00:48;;;;;;;61.47;28.02;;;7.70;99.90;;;;;;5060617;28;20376;-52
2020/12/21 03:03:15;;;;;;;59.95;28.30;;;7.70;99.90;;;;;;5057522;28;20379;-52
2020/12/21 03:05:41;;;;;;;63.85;27.27;;;7.70;99.90;;;;;;5070712;28;20374;-52
2020/12/21 03:08:08;;;;;;;54.08;26.10;;;7.80;99.90;;;;;;5070030;28;20417;-52
2020/12/21 03:10:34;;;;;;;58.35;27.27;;;7.80;99.90;;;;;;5067137;28;20395;-55
2020/12/21 03:13:01;;;;;;;70.35;28.63;;;7.80;99.90;;;;;;5060159;28;20414;-52
2020/12/21 03:15:27;;;;;;;53.33;27.25;;;7.80;99.90;;;;;;5055441;28;20391;-53
2020/12/21 03:17:53;;;;;;;63.85;29.90;;;7.80;99.90;;;;;;5063387;28;20386;-52
2020/12/21 03:20:19;;;;;;;60.38;28.65;;;7.80;99.90;;;;;;5059081;28;20371;-55
2020/12/21 03:22:48;;;;;;;64.38;29.02;;;7.80;99.90;;;;;;5055195;28;20388;-54
2020/12/21 03:25:15;;;;;;;57.03;28.98;;;7.80;99.90;;;;;;5068978;28;20738;-53
2020/12/21 03:27:41;;;;;;;60.53;28.52;;;7.80;99.90;;;;;;5067634;28;20410;-54
2020/12/21 03:30:08;;;;;;;67.35;29.10;;;7.80;99.90;;;;;;5057584;28;20885;-54
2020/12/21 03:32:34;;;;;;;61.67;28.75;;;7.70;99.90;;;;;;5063436;28;20937;-52
2020/12/21 03:35:01;;;;;;;67.33;28.80;;;7.70;99.90;;;;;;5064189;28;20393;-55
2020/12/21 03:37:27;;;;;;;64.85;27.90;;;7.70;99.90;;;;;;5064292;28;20876;-52
2020/12/21 03:39:53;;;;;;;58.20;29.10;;;7.70;99.90;;;;;;5070456;28;20378;-54
2020/12/21 03:42:19;;;;;;;67.53;29.13;;;7.70;99.90;;;;;;5067549;28;20413;-55
2020/12/21 03:44:45;;;;;;;57.13;28.13;;;7.70;99.90;;;;;;5060866;28;20399;-55
2020/12/21 03:47:11;;;;;;;53.10;26.27;;;7.70;99.90;;;;;;5065154;28;20434;-55
2020/12/21 03:49:37;;;;;;;56.38;25.58;;;7.70;99.90;;;;;;5061922;28;20869;-54
2020/12/21 03:52:03;;;;;;;56.90;25.23;;;7.70;99.90;;;;;;5052248;28;20387;-56
2020/12/21 03:54:30;;;;;;;54.97;26.75;;;7.70;99.90;;;;;;5056769;28;20392;-52
2020/12/21 03:56:56;;;;;;;57.40;26.77;;;7.70;99.90;;;;;;5063368;28;20850;-51
2020/12/21 03:59:22;;;;;;;61.88;28.52;;;7.70;99.90;;;;;;5062776;28;20386;-55
2020/12/21 04:01:48;;;;;;;60.80;28.95;;;7.70;99.90;;;;;;5062825;28;20390;-55
2020/12/21 04:04:14;;;;;;;63.93;30.20;;;7.70;99.90;;;;;;5062977;28;20409;-52
2020/12/21 04:06:40;;;;;;;61.08;29.15;;;7.60;99.90;;;;;;5069197;28;20444;-54
2020/12/21 04:09:06;;;;;;;59.92;28.88;;;7.60;99.90;;;;;;5059661;28;20412;-53
2020/12/21 04:11:32;;;;;;;62.53;29.52;;;7.60;99.90;;;;;;5057840;28;20398;-52
2020/12/21 04:13:59;;;;;;;56.60;28.05;;;7.60;99.90;;;;;;5056429;28;20398;-55
2020/12/21 04:16:25;;;;;;;61.30;28.50;;;7.60;99.90;;;;;;5063245;28;20402;-55
2020/12/21 04:18:51;;;;;;;58.53;27.35;;;7.60;99.90;;;;;;5063170;28;20390;-55
2020/12/21 04:21:17;;;;;;;59.10;26.77;;;7.60;99.90;;;;;;5064657;28;20393;-55
2020/12/21 04:23:52;;;;;;;63.22;27.33;;;7.70;99.90;;;;;;5066619;28;20413;-56
2020/12/21 04:26:18;;;;;;;59.77;26.23;;;7.60;99.90;;;;;;5060983;28;20391;-53
2020/12/21 04:28:45;;;;;;;57.37;27.57;;;7.70;99.90;;;;;;5060413;28;20413;-52
2020/12/21 04:31:11;;;;;;;59.88;28.10;;;7.60;99.90;;;;;;5059292;28;20473;-55
2020/12/21 04:33:37;;;;;;;66.72;30.50;;;7.60;99.90;;;;;;5055425;28;22074;-55
2020/12/21 04:36:08;;;;;;;71.30;29.73;;;7.60;99.90;;;;;;5067696;28;20750;-54
2020/12/21 04:38:34;;;;;;;62.55;29.88;;;7.50;99.90;;;;;;5068991;28;20865;-53
2020/12/21 04:41:00;;;;;;;66.95;29.50;;;7.60;99.90;;;;;;5061846;28;20885;-53
2020/12/21 04:43:27;;;;;;;65.53;30.42;;;7.60;99.90;;;;;;5058787;28;20394;-55
2020/12/21 04:45:54;;;;;;;67.68;30.80;;;7.50;99.90;;;;;;5065020;28;20390;-53
2020/12/21 04:48:22;;;;;;;67.13;29.90;;;7.50;99.90;;;;;;5065827;28;20402;-52
2020/12/21 04:50:54;;;;;;;75.13;30.25;;;7.50;99.90;;;;;;5064849;28;22030;-55
2020/12/21 04:53:21;;;;;;;71.68;31.65;;;7.50;99.90;;;;;;5063251;28;20392;-54
2020/12/21 04:55:47;;;;;;;65.85;31.25;;;7.50;99.90;;;;;;5069585;28;20491;-55
2020/12/21 04:58:14;;;;;;;72.10;32.13;;;7.50;99.90;;;;;;5066946;28;20404;-56
2020/12/21 05:00:40;;;;;;;66.23;31.40;;;7.50;99.90;;;;;;5061726;28;20379;-54
2020/12/21 05:03:06;;;;;;;73.30;31.23;;;7.50;99.90;;;;;;5065197;28;20477;-54
2020/12/21 05:05:33;;;;;;;62.15;28.65;;;7.50;99.90;;;;;;5068386;28;20390;-56
2020/12/21 05:08:07;;;;;;;64.05;28.85;;;7.50;99.90;;;;;;5071752;28;20759;-55
2020/12/21 05:10:34;;;;;;;68.97;30.15;;;7.50;99.90;;;;;;5068303;28;20375;-54
2020/12/21 05:13:04;;;;;;;60.97;28.33;;;7.50;99.90;;;;;;5069766;28;20398;-55
2020/12/21 05:15:30;;;;;;;62.63;27.83;;;7.50;99.90;;;;;;5069682;28;20402;-53
2020/12/21 05:18:09;;;;;;;64.82;28.25;;;7.50;99.90;;;;;;5069408;28;20882;-52
2020/12/21 05:20:39;;;;;;;64.85;28.08;;;7.50;99.90;;;;;;5066881;28;20390;-55
2020/12/21 05:23:16;;;;;;;62.00;27.60;;;7.50;99.90;;;;;;5066226;28;20405;-55
2020/12/21 05:25:42;;;;;;;63.58;27.23;;;7.50;99.90;;;;;;5070080;28;20386;-54
2020/12/21 05:28:13;;;;;;;69.27;27.30;;;7.50;99.90;;;;;;5067906;28;20413;-55
2020/12/21 05:30:52;;;;;;;56.27;26.23;;;7.50;99.90;;;;;;5065620;28;20389;-56
2020/12/21 05:33:18;;;;;;;59.75;26.13;;;7.50;99.90;;;;;;5066281;28;20393;-54
2020/12/21 05:35:48;;;;;;;60.95;26.50;;;7.50;99.90;;;;;;5070282;28;20893;-54
2020/12/21 05:38:27;;;;;;;53.22;24.00;;;7.50;99.90;;;;;;5066348;28;20386;-53
2020/12/21 05:41:16;;;;;;;54.13;24.90;;;7.50;99.90;;;;;;5070846;28;20727;-55
2020/12/21 05:43:42;;;;;;;57.13;26.42;;;7.50;99.90;;;;;;5069536;28;20405;-51
2020/12/21 05:46:15;;;;;;;63.85;26.35;;;7.50;99.90;;;;;;5068858;28;20367;-55
2020/12/21 05:48:53;;;;;;;54.80;24.83;;;7.50;99.90;;;;;;5067967;28;20412;-54
2020/12/21 05:51:27;;;;;;;55.75;25.73;;;7.50;99.90;;;;;;5070067;28;20389;-52
2020/12/21 05:53:57;;;;;;;58.50;25.40;;;7.50;99.90;;;;;;5067936;28;20441;-54
2020/12/21 05:56:27;;;;;;;58.72;25.40;;;7.50;99.90;;;;;;5071082;28;20394;-55
2020/12/21 05:58:54;;;;;;;57.55;25.05;;;7.40;99.90;;;;;;5072305;28;20390;-52
2020/12/21 06:01:20;;;;;;;53.67;25.38;;;7.50;99.90;;;;;;5069020;28;20374;-53
2020/12/21 06:03:50;;;;;;;57.80;25.40;;;7.40;99.90;;;;;;5070992;28;20889;-52
2020/12/21 06:06:21;;;;;;;58.67;24.73;;;7.40;99.90;;;;;;5066799;28;20381;-52
2020/12/21 06:08:49;;;;;;;55.28;22.85;;;7.40;99.90;;;;;;5068963;28;20405;-52
2020/12/21 06:11:20;;;;;;;55.08;21.85;;;7.40;99.90;;;;;;5066803;28;20738;-54
2020/12/21 06:13:53;;;;;;;53.78;23.17;;;7.40;99.90;;;;;;5061321;28;20378;-52
2020/12/21 06:16:19;;;;;;;51.80;22.42;;;7.40;99.90;;;;;;5062600;28;20398;-54
2020/12/21 06:19:05;;;;;;;53.17;20.45;;;7.40;99.90;;;;;;5065745;28;20385;-52
2020/12/21 06:21:33;;;;;;;52.60;20.77;;;7.40;99.90;;;;;;5058650;28;20897;-55
2020/12/21 06:23:59;;;;;;;46.85;19.95;;;7.50;99.90;;;;;;5059808;28;20374;-55
2020/12/21 06:26:36;;;;;;;41.83;18.08;;;7.40;99.90;;;;;;5068229;28;20386;-55
2020/12/21 06:29:05;;;;;;;50.53;19.90;;;7.40;99.90;;;;;;5068352;28;21006;-55
2020/12/21 06:31:42;;;;;;;50.67;18.83;;;7.40;99.90;;;;;;5064932;28;20378;-56
2020/12/21 06:34:09;;;;;;;46.73;19.17;;;7.50;99.90;;;;;;5066047;28;20399;-55
2020/12/21 06:36:36;;;;;;;48.07;19.17;;;7.40;99.90;;;;;;5071166;28;20366;-54
2020/12/21 06:39:02;;;;;;;50.17;19.50;;;7.40;99.90;;;;;;5071439;28;20409;-56
2020/12/21 06:41:29;;;;;;;46.42;18.55;;;7.40;99.90;;;;;;5071668;28;20386;-53
2020/12/21 06:43:59;;;;;;;46.53;19.63;;;7.40;99.90;;;;;;5071820;28;20370;-54
2020/12/21 06:46:29;;;;;;;44.38;17.42;;;7.40;99.90;;;;;;5072022;28;20386;-54
2020/12/21 06:49:12;;;;;;;40.80;16.75;;;7.40;99.90;;;;;;5068830;28;20406;-54
2020/12/21 06:51:45;;;;;;;40.63;16.75;;;7.40;99.90;;;;;;5064892;28;20390;-52
2020/12/21 06:54:12;;;;;;;40.20;17.30;;;7.40;99.90;;;;;;5054189;28;20458;-55
2020/12/21 06:56:42;;;;;;;37.35;16.40;;;7.40;99.90;;;;;;5065646;28;20374;-55
2020/12/21 06:59:16;;;;;;;39.37;16.07;;;7.40;99.90;;;;;;5067404;28;20409;-54
2020/12/21 07:01:43;;;;;;;39.20;15.82;;;7.40;99.90;;;;;;5044742;28;20397;-55
2020/12/21 07:04:11;;;;;;;40.67;17.17;;;7.40;99.90;;;;;;5064554;28;20401;-55
2020/12/21 07:06:38;;;;;;;42.33;17.63;;;7.40;99.90;;;;;;5063654;28;20370;-52
2020/12/21 07:09:04;;;;;;;42.38;17.92;;;7.40;99.90;;;;;;5066505;28;20484;-53
2020/12/21 07:11:30;;;;;;;47.72;18.70;;;7.40;99.90;;;;;;5066112;28;20906;-51
2020/12/21 07:13:57;;;;;;;40.42;18.30;;;7.40;99.90;;;;;;5060565;28;20735;-53
2020/12/21 07:16:23;;;;;;;50.13;19.73;;;7.40;99.90;;;;;;5066060;28;20386;-51
2020/12/21 07:18:49;;;;;;;59.50;19.88;;;7.40;99.90;;;;;;5081834;28;20388;-54
2020/12/21 07:21:16;;;;;;;42.45;18.98;;;7.40;99.90;;;;;;5064319;28;20851;-52
2020/12/21 07:23:42;;;;;;;44.28;17.83;;;7.40;99.90;;;;;;5059609;28;20382;-55
2020/12/21 07:26:09;;;;;;;49.57;19.57;;;7.40;99.90;;;;;;5059001;28;20390;-54
2020/12/21 07:28:36;;;;;;;51.05;19.23;;;7.40;99.90;;;;;;5063069;28;20765;-55
2020/12/21 07:31:15;;;;;;;50.03;17.85;;;7.40;99.90;;;;;;5055869;28;20396;-52
2020/12/21 07:33:55;;;;;;;48.77;18.40;;;7.40;99.90;;;;;;5063430;28;20410;-55
2020/12/21 07:36:34;;;;;;;39.05;17.10;;;7.40;99.90;;;;;;5060833;28;20757;-55
2020/12/21 07:39:12;;;;;;;45.42;17.00;;;7.40;99.90;;;;;;5059645;28;20375;-53
2020/12/21 07:41:45;;;;;;;44.92;17.50;;;7.40;99.90;;;;;;5061010;28;20399;-56
2020/12/21 07:44:28;;;;;;;43.88;16.60;;;7.40;99.90;;;;;;5065143;28;20384;-53
2020/12/21 07:46:58;;;;;;;43.20;16.92;;;7.40;99.90;;;;;;5060386;28;20388;-54
2020/12/21 07:49:24;;;;;;;38.95;17.17;;;7.30;99.90;;;;;;5060218;28;20407;-52
2020/12/21 07:51:51;;;;;;;42.70;18.40;;;7.40;99.90;;;;;;5047908;28;20392;-53
2020/12/21 07:54:17;;;;;;;44.50;18.35;;;7.40;99.90;;;;;;5055698;28;20390;-54
2020/12/21 07:56:43;;;;;;;44.42;17.83;;;7.40;99.90;;;;;;5053981;28;20382;-55
2020/12/21 07:59:18;;;;;;;44.17;17.88;;;7.40;99.90;;;;;;5064127;28;20394;-54
2020/12/21 08:01:45;;;;;;;41.08;17.75;;;7.40;99.90;;;;;;5064195;28;20370;-53
2020/12/21 08:04:14;;;;;;;35.83;17.27;;;7.40;99.90;;;;;;5063401;28;20742;-53
2020/12/21 08:06:40;;;;;;;48.13;18.70;;;7.40;99.90;;;;;;5061276;28;20386;-53
2020/12/21 08:09:09;;;;;;;49.10;18.67;;;7.40;99.90;;;;;;5047017;28;20408;-54
2020/12/21 08:11:36;;;;;;;48.25;18.75;;;7.50;99.90;;;;;;5064548;28;20736;-55
2020/12/21 08:14:02;;;;;;;42.70;19.17;;;7.40;99.90;;;;;;5058392;28;20382;-54
2020/12/21 08:16:28;;;;;;;47.40;19.20;;;7.40;99.90;;;;;;5060867;28;20821;-55
2020/12/21 08:18:55;;;;;;;46.30;19.45;;;7.40;99.90;;;;;;5063070;28;20812;-54
2020/12/21 08:21:25;;;;;;;44.70;20.55;;;7.50;99.90;;;;;;5065372;28;20758;-51
2020/12/21 08:24:00;;;;;;;44.90;19.55;;;7.50;99.90;;;;;;5065415;28;20390;-54
2020/12/21 08:26:26;;;;;;;44.15;19.25;;;7.40;99.90;;;;;;5072102;28;20409;-54
2020/12/21 08:28:54;;;;;;;47.25;20.80;;;7.40;99.90;;;;;;5069719;28;20413;-53
2020/12/21 08:31:21;;;;;;;51.78;21.90;;;7.40;99.90;;;;;;5064983;28;20881;-52
2020/12/21 08:34:06;;;;;;;52.83;22.80;;;7.40;99.90;;;;;;5065469;28;20893;-54
2020/12/21 08:36:36;;;;;;;67.22;24.55;;;7.40;99.90;;;;;;5072127;28;20393;-54
2020/12/21 08:39:18;;;;;;;60.20;24.92;;;7.30;99.90;;;;;;5065846;28;20378;-55
2020/12/21 08:41:45;;;;;;;45.97;17.98;;;7.40;99.90;;;;;;5080839;28;20538;-52
2020/12/21 08:44:13;;;;;;;59.90;19.90;;;7.30;99.90;;;;;;5062317;28;20174;-51
2020/12/21 08:46:44;;;;;;;52.50;18.77;;;7.30;99.90;;;;;;5064480;28;20167;-53
2020/12/21 08:49:10;;;;;;;55.17;19.52;;;7.30;99.90;;;;;;5063840;28;20206;-55
2020/12/21 08:51:39;;;;;;;54.28;20.60;;;7.30;99.90;;;;;;5063694;28;20178;-55
2020/12/21 08:54:05;;;;;;;53.92;19.10;;;7.30;99.90;;;;;;5068075;28;20630;-54
2020/12/21 08:56:31;;;;;;;56.15;22.73;;;7.30;99.90;;;;;;5065122;28;20382;-53
2020/12/21 08:58:57;;;;;;;56.13;23.48;;;7.40;99.90;;;;;;5060272;28;20737;-53
2020/12/21 09:01:23;;;;;;;50.88;22.25;;;7.40;99.90;;;;;;5065842;28;20377;-51
2020/12/21 09:03:50;;;;;;;55.80;22.88;;;7.40;99.90;;;;;;5067279;28;20405;-52
2020/12/21 09:06:17;;;;;;;51.95;23.45;;;7.40;99.90;;;;;;5065876;28;20388;-51
2020/12/21 09:08:43;;;;;;;57.38;20.48;;;7.40;99.90;;;;;;5063464;28;20879;-52
2020/12/21 09:11:10;;;;;;;57.25;21.80;;;7.40;99.90;;;;;;5062859;28;20719;-53
2020/12/21 09:13:42;;;;;;;53.15;21.20;;;7.40;99.90;;;;;;5061822;28;20409;-54
2020/12/21 09:16:08;;;;;;;56.97;20.95;;;7.40;99.90;;;;;;5063991;28;20392;-54
2020/12/21 09:18:34;;;;;;;51.53;19.67;;;7.40;99.90;;;;;;5063398;28;20396;-55
2020/12/21 09:21:01;;;;;;;44.70;18.55;;;7.40;99.90;;;;;;5062415;28;20696;-55
2020/12/21 09:23:27;;;;;;;46.63;17.75;;;7.40;99.90;;;;;;5060413;28;20477;-51
2020/12/21 09:25:53;;;;;;;45.57;16.97;;;7.40;99.90;;;;;;5067787;28;20374;-54
2020/12/21 09:28:19;;;;;;;49.38;17.40;;;7.40;99.90;;;;;;5064043;28;20414;-55
2020/12/21 09:30:45;;;;;;;52.53;18.35;;;7.40;99.90;;;;;;5059617;28;20388;-52
2020/12/21 09:33:12;;;;;;;32.95;10.45;;;7.30;99.90;;;;;;5065816;28;20394;-55
2020/12/21 09:35:38;;;;;;;29.10;8.25;;;7.10;99.90;;;;;;5063655;28;20739;-51
2020/12/21 09:38:04;;;;;;;22.17;6.68;;;6.90;99.90;;;;;;5064727;28;20407;-54
2020/12/21 09:40:30;;;;;;;27.92;6.75;;;6.80;99.90;;;;;;5062159;28;20387;-52
2020/12/21 09:42:56;;;;;;;20.35;5.45;;;6.70;99.90;;;;;;5064270;28;20433;-52
2020/12/21 09:45:22;;;;;;;17.80;4.80;;;6.70;99.90;;;;;;5061608;28;20382;-52
2020/12/21 09:47:49;;;;;;;20.05;5.25;;;6.70;99.90;;;;;;5063672;28;21980;-54
2020/12/21 09:50:15;;;;;;;24.35;6.07;;;6.70;99.90;;;;;;5062108;28;20402;-54
2020/12/21 09:52:41;;;;;;;34.08;7.28;;;6.70;99.90;;;;;;5058360;28;20398;-55
2020/12/21 09:55:11;;;;;;;40.78;8.32;;;6.80;99.90;;;;;;5062596;28;20771;-51
2020/12/21 09:57:38;;;;;;;37.85;9.52;;;6.80;99.90;;;;;;5063239;28;20377;-52
2020/12/21 10:00:05;;;;;;;44.13;12.55;;;6.80;99.90;;;;;;5062634;28;20387;-54
2020/12/21 10:02:31;;;;;;;40.25;13.68;;;6.80;99.90;;;;;;5062765;28;20383;-54
2020/12/21 10:04:57;;;;;;;50.33;14.18;;;6.90;99.90;;;;;;5074113;28;20442;-53
2020/12/21 10:07:23;;;;;;;48.05;14.48;;;6.90;99.90;;;;;;5065881;28;20732;-54
2020/12/21 10:09:49;;;;;;;50.33;14.90;;;6.90;99.90;;;;;;5063023;28;20415;-52
2020/12/21 10:12:15;;;;;;;55.78;16.33;;;6.90;99.90;;;;;;5060268;28;20386;-53
2020/12/21 10:14:43;;;;;;;60.87;17.03;;;6.90;99.90;;;;;;5063216;28;20390;-51
2020/12/21 10:17:09;;;;;;;64.95;16.85;;;6.90;99.90;;;;;;5057632;28;20821;-51
2020/12/21 10:19:35;;;;;;;74.32;18.88;;;7.00;99.90;;;;;;5058041;28;20390;-51
2020/12/21 10:22:02;;;;;;;80.50;19.00;;;6.90;99.90;;;;;;5057012;28;20403;-54
2020/12/21 10:24:28;;;;;;;60.57;18.30;;;7.00;99.90;;;;;;5058113;28;20386;-56
2020/12/21 10:26:55;;;;;;;63.08;17.75;;;7.00;99.90;;;;;;5062751;28;20374;-54
2020/12/21 10:29:21;;;;;;;63.70;17.80;;;7.00;99.90;;;;;;5058283;28;20415;-54
2020/12/21 10:31:47;;;;;;;69.43;19.48;;;7.00;99.90;;;;;;5054902;28;20388;-55
2020/12/21 10:34:14;;;;;;;64.85;18.30;;;7.10;99.90;;;;;;5067635;28;20398;-51
2020/12/21 10:36:41;;;;;;;61.85;17.35;;;7.10;99.90;;;;;;5061514;28;20407;-52
2020/12/21 10:39:07;;;;;;;54.40;16.90;;;7.10;99.90;;;;;;5063480;28;20407;-52
2020/12/21 10:41:33;;;;;;;51.08;14.77;;;7.10;99.90;;;;;;5065823;28;20898;-53
2020/12/21 10:43:59;;;;;;;51.77;13.83;;;7.10;99.90;;;;;;5068777;28;20398;-53
2020/12/21 10:46:26;;;;;;;52.87;13.60;;;7.10;99.90;;;;;;5065972;28;20382;-55
2020/12/21 10:48:52;;;;;;;40.10;12.40;;;7.10;99.90;;;;;;5062838;28;20431;-51
2020/12/21 10:51:26;;;;;;;43.97;12.53;;;7.10;99.90;;;;;;5064188;28;20386;-51
2020/12/21 10:53:52;;;;;;;53.47;14.20;;;7.10;99.90;;;;;;5062693;28;20879;-51
2020/12/21 10:56:18;;;;;;;45.80;12.30;;;7.10;99.90;;;;;;5069555;28;20417;-53
2020/12/21 10:58:44;;;;;;;47.55;13.25;;;7.10;99.90;;;;;;5070466;28;20390;-54
2020/12/21 11:01:10;;;;;;;47.88;13.23;;;7.00;99.90;;;;;;5064315;28;20392;-52
2020/12/21 11:03:37;;;;;;;47.17;13.15;;;7.10;99.90;;;;;;5053645;28;20425;-52
2020/12/21 11:06:03;;;;;;;50.83;13.00;;;7.10;99.90;;;;;;5070189;28;20397;-53
2020/12/21 11:08:29;;;;;;;54.20;13.20;;;7.10;99.90;;;;;;5064362;28;20386;-54
2020/12/21 11:10:55;;;;;;;43.87;11.63;;;7.10;99.90;;;;;;5062604;28;20395;-53
2020/12/21 11:13:22;;;;;;;47.50;12.40;;;7.10;99.90;;;;;;5067513;28;21164;-54
2020/12/21 11:15:50;;;;;;;49.17;11.87;;;7.10;99.90;;;;;;5057699;28;20400;-53
2020/12/21 11:18:17;;;;;;;47.22;12.25;;;7.10;99.90;;;;;;5061591;28;20396;-54
2020/12/21 11:20:43;;;;;;;48.83;10.73;;;7.10;99.90;;;;;;5060689;28;20398;-55
2020/12/21 11:23:10;;;;;;;43.97;10.48;;;7.10;99.90;;;;;;5061162;28;20394;-53
2020/12/21 11:25:36;;;;;;;42.80;10.43;;;7.10;99.90;;;;;;5066074;28;21376;-52
2020/12/21 11:28:06;;;;;;;41.07;9.40;;;7.20;99.90;;;;;;5060303;28;20717;-53
2020/12/21 11:30:32;;;;;;;41.55;8.95;;;7.20;99.90;;;;;;5061371;28;20737;-54
2020/12/21 11:33:01;;;;;;;26.48;6.88;;;7.20;99.90;;;;;;5060826;28;21118;-52
2020/12/21 11:35:27;;;;;;;28.83;6.40;;;7.10;99.90;;;;;;5067434;28;20405;-54
2020/12/21 11:37:53;;;;;;;30.10;5.43;;;7.10;99.90;;;;;;5059763;28;20390;-52
2020/12/21 11:40:19;;;;;;;25.13;4.80;;;7.10;99.90;;;;;;5070172;28;20932;-52
2020/12/21 11:42:48;;;;;;;23.13;4.90;;;7.10;99.90;;;;;;5062215;28;20394;-52
2020/12/21 11:45:14;;;;;;;27.23;5.10;;;7.10;99.90;;;;;;5066987;28;20390;-52
2020/12/21 11:47:40;;;;;;;26.85;4.65;;;7.10;99.90;;;;;;5061672;28;20384;-52
2020/12/21 11:50:07;;;;;;;25.33;4.73;;;7.10;99.90;;;;;;5062162;28;20426;-54
2020/12/21 11:52:33;;;;;;;30.03;4.47;;;7.10;99.90;;;;;;5055604;28;20426;-55
2020/12/21 11:54:59;;;;;;;20.10;4.30;;;7.10;99.90;;;;;;5064111;28;20866;-56
2020/12/21 11:57:27;;;;;;;28.00;4.72;;;7.00;99.90;;;;;;5061111;28;20465;-54
2020/12/21 11:59:54;;;;;;;29.27;4.73;;;7.00;99.90;;;;;;5059347;28;20401;-55
2020/12/21 12:02:21;;;;;;;26.33;4.55;;;7.10;99.90;;;;;;5059716;28;20382;-52
2020/12/21 12:04:48;;;;;;;30.70;4.63;;;7.10;99.90;;;;;;5065910;28;20416;-55
2020/12/21 12:07:14;;;;;;;28.80;4.63;;;7.10;99.90;;;;;;5063217;28;20850;-52
2020/12/21 12:09:40;;;;;;;23.48;4.63;;;7.10;99.90;;;;;;5069035;28;20406;-54
2020/12/21 12:12:06;;;;;;;27.42;4.32;;;7.00;99.90;;;;;;5069992;28;20413;-55
2020/12/21 12:14:32;;;;;;;26.55;4.90;;;7.10;99.90;;;;;;5060078;28;20414;-54
2020/12/21 12:16:58;;;;;;;26.38;4.50;;;7.10;99.90;;;;;;5050324;28;20375;-53
2020/12/21 12:19:25;;;;;;;20.75;4.47;;;7.10;99.90;;;;;;5058736;28;20394;-55
2020/12/21 12:21:52;;;;;;;23.95;4.60;;;7.10;99.90;;;;;;5049664;28;20387;-54
2020/12/21 12:24:18;;;;;;;23.42;4.28;;;7.10;99.90;;;;;;5056644;28;20409;-53
2020/12/21 12:26:44;;;;;;;22.80;4.27;;;7.10;99.90;;;;;;5059593;28;20887;-61
2020/12/21 12:29:11;;;;;;;28.65;4.60;;;7.10;99.90;;;;;;5056369;28;20809;-55
2020/12/21 12:31:37;;;;;;;23.13;4.40;;;7.10;99.90;;;;;;5062544;28;20399;-54
2020/12/21 12:34:03;;;;;;;28.87;4.63;;;7.10;99.90;;;;;;5058658;28;20410;-52
2020/12/21 12:36:29;;;;;;;27.43;4.67;;;7.00;99.90;;;;;;5064020;28;20397;-54
2020/12/21 12:38:55;;;;;;;27.77;4.88;;;7.00;99.90;;;;;;5057414;28;20866;-52
2020/12/21 12:41:22;;;;;;;29.98;4.43;;;7.10;99.90;;;;;;5055502;28;20414;-55